sensor_id;sensor_type;location;lat;lon;timestamp;temperature;humidity
1083;DHT22;530;51.448;7.238;2022-07-03T00:00:10;20.10;99.90
1083;DHT22;530;51.448;7.238;2022-07-03T00:02:36;20.00;99.90
1083;DHT22;530;51.448;7.238;2022-07-03T00:05:02;20.00;99.90
1083;DHT22;530;51.448;7.238;2022-07-03T00:07:28;19.90;99.90
1083;DHT22;530;51.448;7.238;2022-07-03T00:09:53;19.90;99.90
1083;DHT22;530;51.448;7.238;2022-07-03T00:12:19;19.80;99.90
1083;DHT22;530;51.448;7.238;2022-07-03T00:14:45;19.90;99.90
1083;DHT22;530;51.448;7.238;2022-07-03T00:17:10;19.70;99.90
1083;DHT22;530;51.448;7.238;2022-07-03T00:19:36;19.70;99.90
1083;DHT22;530;51.448;7.238;2022-07-03T00:22:04;19.60;99.90
1083;DHT22;530;51.448;7.238;2022-07-03T00:27:09;19.30;99.90
1083;DHT22;530;51.448;7.238;2022-07-03T00:29:41;19.20;99.90
1083;DHT22;530;51.448;7.238;2022-07-03T00:32:12;19.10;99.90
1083;DHT22;530;51.448;7.238;2022-07-03T00:34:39;19.10;99.90
1083;DHT22;530;51.448;7.238;2022-07-03T00:37:09;19.10;99.90
1083;DHT22;530;51.448;7.238;2022-07-03T00:39:37;19.00;99.90
1083;DHT22;530;51.448;7.238;2022-07-03T00:42:05;18.90;99.90
1083;DHT22;530;51.448;7.238;2022-07-03T00:44:56;18.90;99.90
1083;DHT22;530;51.448;7.238;2022-07-03T00:47:24;18.90;99.90
1083;DHT22;530;51.448;7.238;2022-07-03T00:49:52;18.80;99.90
1083;DHT22;530;51.448;7.238;2022-07-03T00:52:20;18.70;99.90
1083;DHT22;530;51.448;7.238;2022-07-03T00:54:57;18.70;99.90
1083;DHT22;530;51.448;7.238;2022-07-03T00:57:25;18.70;99.90
1083;DHT22;530;51.448;7.238;2022-07-03T00:59:52;18.60;99.90
1083;DHT22;530;51.448;7.238;2022-07-03T01:05:39;18.60;99.90
1083;DHT22;530;51.448;7.238;2022-07-03T01:11:14;18.70;99.90
1083;DHT22;530;51.448;7.238;2022-07-03T01:16:54;18.70;99.90
1083;DHT22;530;51.448;7.238;2022-07-03T01:28:11;18.50;99.90
1083;DHT22;530;51.448;7.238;2022-07-03T01:30:44;18.40;99.90
1083;DHT22;530;51.448;7.238;2022-07-03T01:33:22;18.20;99.90
1083;DHT22;530;51.448;7.238;2022-07-03T01:36:07;18.10;99.90
1083;DHT22;530;51.448;7.238;2022-07-03T01:38:38;18.10;99.90
1083;DHT22;530;51.448;7.238;2022-07-03T01:41:10;18.20;99.90
1083;DHT22;530;51.448;7.238;2022-07-03T01:43:56;18.20;99.90
1083;DHT22;530;51.448;7.238;2022-07-03T01:46:28;18.10;99.90
1083;DHT22;530;51.448;7.238;2022-07-03T01:48:55;18.00;99.90
1083;DHT22;530;51.448;7.238;2022-07-03T01:51:21;17.90;99.90
1083;DHT22;530;51.448;7.238;2022-07-03T01:53:49;17.80;99.90
1083;DHT22;530;51.448;7.238;2022-07-03T01:56:17;17.80;99.90
1083;DHT22;530;51.448;7.238;2022-07-03T01:58:43;17.80;99.90
1083;DHT22;530;51.448;7.238;2022-07-03T02:06:43;17.90;99.90
1083;DHT22;530;51.448;7.238;2022-07-03T02:09:11;17.70;99.90
1083;DHT22;530;51.448;7.238;2022-07-03T02:11:43;17.60;99.90
1083;DHT22;530;51.448;7.238;2022-07-03T02:14:15;17.60;99.90
1083;DHT22;530;51.448;7.238;2022-07-03T02:19:34;17.60;99.90
1083;DHT22;530;51.448;7.238;2022-07-03T02:22:04;17.70;99.90
1083;DHT22;530;51.448;7.238;2022-07-03T02:24:53;17.60;99.90
1083;DHT22;530;51.448;7.238;2022-07-03T02:27:23;17.60;99.90
1083;DHT22;530;51.448;7.238;2022-07-03T02:29:59;17.60;99.90
1083;DHT22;530;51.448;7.238;2022-07-03T02:32:28;17.50;99.90
1083;DHT22;530;51.448;7.238;2022-07-03T02:35:06;17.60;99.90
1083;DHT22;530;51.448;7.238;2022-07-03T02:37:38;17.60;99.90
1083;DHT22;530;51.448;7.238;2022-07-03T02:45:48;17.60;99.90
1083;DHT22;530;51.448;7.238;2022-07-03T02:48:36;17.60;99.90
1083;DHT22;530;51.448;7.238;2022-07-03T02:51:10;17.50;99.90
1083;DHT22;530;51.448;7.238;2022-07-03T02:53:44;17.60;99.90
1083;DHT22;530;51.448;7.238;2022-07-03T02:56:22;17.60;99.90
1083;DHT22;530;51.448;7.238;2022-07-03T03:02:07;17.60;99.90
1083;DHT22;530;51.448;7.238;2022-07-03T03:04:34;17.50;99.90
1083;DHT22;530;51.448;7.238;2022-07-03T03:07:08;17.40;99.90
1083;DHT22;530;51.448;7.238;2022-07-03T03:12:08;17.30;99.90
1083;DHT22;530;51.448;7.238;2022-07-03T03:14:39;17.20;99.90
1083;DHT22;530;51.448;7.238;2022-07-03T03:17:07;17.20;99.90
1083;DHT22;530;51.448;7.238;2022-07-03T03:19:41;17.30;99.90
1083;DHT22;530;51.448;7.238;2022-07-03T03:24:54;17.40;99.90
1083;DHT22;530;51.448;7.238;2022-07-03T03:27:21;17.30;99.90
1083;DHT22;530;51.448;7.238;2022-07-03T03:29:47;17.20;99.90
1083;DHT22;530;51.448;7.238;2022-07-03T03:32:13;17.30;99.90
1083;DHT22;530;51.448;7.238;2022-07-03T03:34:41;17.30;99.90
1083;DHT22;530;51.448;7.238;2022-07-03T03:37:06;17.40;99.90
1083;DHT22;530;51.448;7.238;2022-07-03T03:39:32;17.50;99.90
1083;DHT22;530;51.448;7.238;2022-07-03T03:41:58;17.50;99.90
1083;DHT22;530;51.448;7.238;2022-07-03T03:44:26;17.40;99.90
1083;DHT22;530;51.448;7.238;2022-07-03T03:46:54;17.50;99.90
1083;DHT22;530;51.448;7.238;2022-07-03T03:49:20;17.50;99.90
1083;DHT22;530;51.448;7.238;2022-07-03T03:51:46;17.50;99.90
1083;DHT22;530;51.448;7.238;2022-07-03T03:54:11;17.40;99.90
1083;DHT22;530;51.448;7.238;2022-07-03T03:56:37;17.40;99.90
1083;DHT22;530;51.448;7.238;2022-07-03T03:59:03;17.40;99.90
1083;DHT22;530;51.448;7.238;2022-07-03T04:01:28;17.40;99.90
1083;DHT22;530;51.448;7.238;2022-07-03T04:03:54;17.30;99.90
1083;DHT22;530;51.448;7.238;2022-07-03T04:06:20;17.40;99.90
1083;DHT22;530;51.448;7.238;2022-07-03T04:08:46;17.40;99.90
1083;DHT22;530;51.448;7.238;2022-07-03T04:11:12;17.50;99.90
1083;DHT22;530;51.448;7.238;2022-07-03T04:13:37;17.60;99.90
1083;DHT22;530;51.448;7.238;2022-07-03T04:16:03;17.70;99.90
1083;DHT22;530;51.448;7.238;2022-07-03T04:18:29;17.70;99.90
1083;DHT22;530;51.448;7.238;2022-07-03T04:20:55;17.60;99.90
1083;DHT22;530;51.448;7.238;2022-07-03T04:23:21;17.70;99.90
1083;DHT22;530;51.448;7.238;2022-07-03T04:25:47;17.70;99.90
1083;DHT22;530;51.448;7.238;2022-07-03T04:28:13;17.60;99.90
1083;DHT22;530;51.448;7.238;2022-07-03T04:30:39;17.50;99.90
1083;DHT22;530;51.448;7.238;2022-07-03T04:33:04;17.50;99.90
1083;DHT22;530;51.448;7.238;2022-07-03T04:35:30;17.50;99.90
1083;DHT22;530;51.448;7.238;2022-07-03T04:37:56;17.60;99.90
1083;DHT22;530;51.448;7.238;2022-07-03T04:40:22;17.60;99.90
1083;DHT22;530;51.448;7.238;2022-07-03T04:42:47;17.70;99.90
1083;DHT22;530;51.448;7.238;2022-07-03T04:45:13;17.80;99.90
1083;DHT22;530;51.448;7.238;2022-07-03T04:47:39;17.80;99.90
1083;DHT22;530;51.448;7.238;2022-07-03T04:50:05;18.00;99.90
1083;DHT22;530;51.448;7.238;2022-07-03T04:52:31;18.10;99.90
1083;DHT22;530;51.448;7.238;2022-07-03T04:54:57;18.20;99.90
1083;DHT22;530;51.448;7.238;2022-07-03T04:57:23;18.30;99.90
1083;DHT22;530;51.448;7.238;2022-07-03T04:59:48;18.30;99.90
1083;DHT22;530;51.448;7.238;2022-07-03T05:02:14;18.40;99.90
1083;DHT22;530;51.448;7.238;2022-07-03T05:04:40;18.50;99.90
1083;DHT22;530;51.448;7.238;2022-07-03T05:07:05;18.50;99.90
1083;DHT22;530;51.448;7.238;2022-07-03T05:09:31;18.60;99.90
1083;DHT22;530;51.448;7.238;2022-07-03T05:11:57;18.70;99.90
1083;DHT22;530;51.448;7.238;2022-07-03T05:14:22;18.80;99.90
1083;DHT22;530;51.448;7.238;2022-07-03T05:16:48;18.90;99.90
1083;DHT22;530;51.448;7.238;2022-07-03T05:19:14;19.00;99.90
1083;DHT22;530;51.448;7.238;2022-07-03T05:21:39;19.00;99.90
1083;DHT22;530;51.448;7.238;2022-07-03T05:24:05;19.10;99.90
1083;DHT22;530;51.448;7.238;2022-07-03T05:26:31;19.20;99.90
1083;DHT22;530;51.448;7.238;2022-07-03T05:28:57;19.30;99.90
1083;DHT22;530;51.448;7.238;2022-07-03T05:31:23;19.40;99.90
1083;DHT22;530;51.448;7.238;2022-07-03T05:33:48;19.50;99.90
1083;DHT22;530;51.448;7.238;2022-07-03T05:36:14;19.60;99.90
1083;DHT22;530;51.448;7.238;2022-07-03T05:38:40;19.60;99.90
1083;DHT22;530;51.448;7.238;2022-07-03T05:41:24;19.60;99.90
1083;DHT22;530;51.448;7.238;2022-07-03T05:43:50;19.70;99.90
1083;DHT22;530;51.448;7.238;2022-07-03T05:46:16;19.70;99.90
1083;DHT22;530;51.448;7.238;2022-07-03T05:48:41;19.60;99.90
1083;DHT22;530;51.448;7.238;2022-07-03T05:51:07;19.70;99.90
1083;DHT22;530;51.448;7.238;2022-07-03T05:53:33;19.80;99.90
1083;DHT22;530;51.448;7.238;2022-07-03T05:55:59;19.80;99.90
1083;DHT22;530;51.448;7.238;2022-07-03T05:58:24;19.90;99.90
1083;DHT22;530;51.448;7.238;2022-07-03T06:00:50;20.00;99.90
1083;DHT22;530;51.448;7.238;2022-07-03T06:03:16;20.30;99.90
1083;DHT22;530;51.448;7.238;2022-07-03T06:05:42;20.50;99.90
1083;DHT22;530;51.448;7.238;2022-07-03T06:08:07;20.70;99.90
1083;DHT22;530;51.448;7.238;2022-07-03T06:10:33;20.90;99.90
1083;DHT22;530;51.448;7.238;2022-07-03T06:12:59;21.00;99.90
1083;DHT22;530;51.448;7.238;2022-07-03T06:15:25;21.20;99.90
1083;DHT22;530;51.448;7.238;2022-07-03T06:17:51;21.40;99.90
1083;DHT22;530;51.448;7.238;2022-07-03T06:20:17;21.50;99.90
1083;DHT22;530;51.448;7.238;2022-07-03T06:22:43;21.70;99.90
1083;DHT22;530;51.448;7.238;2022-07-03T06:25:09;21.80;99.90
1083;DHT22;530;51.448;7.238;2022-07-03T06:27:35;22.00;99.90
1083;DHT22;530;51.448;7.238;2022-07-03T06:30:01;22.10;99.90
1083;DHT22;530;51.448;7.238;2022-07-03T06:32:27;22.30;99.90
1083;DHT22;530;51.448;7.238;2022-07-03T06:34:52;22.30;99.90
1083;DHT22;530;51.448;7.238;2022-07-03T06:37:19;22.40;99.90
1083;DHT22;530;51.448;7.238;2022-07-03T06:39:45;22.50;99.90
1083;DHT22;530;51.448;7.238;2022-07-03T06:42:10;22.60;99.90
1083;DHT22;530;51.448;7.238;2022-07-03T06:44:36;22.70;99.90
1083;DHT22;530;51.448;7.238;2022-07-03T06:47:02;22.80;99.90
1083;DHT22;530;51.448;7.238;2022-07-03T06:49:29;22.90;99.90
1083;DHT22;530;51.448;7.238;2022-07-03T06:51:57;22.90;99.70
1083;DHT22;530;51.448;7.238;2022-07-03T06:54:22;22.90;99.70
1083;DHT22;530;51.448;7.238;2022-07-03T06:56:48;22.90;99.70
1083;DHT22;530;51.448;7.238;2022-07-03T06:59:14;23.00;99.90
1083;DHT22;530;51.448;7.238;2022-07-03T07:01:39;23.20;99.90
1083;DHT22;530;51.448;7.238;2022-07-03T07:04:05;23.30;98.90
1083;DHT22;530;51.448;7.238;2022-07-03T07:06:31;23.40;98.70
1083;DHT22;530;51.448;7.238;2022-07-03T07:08:56;23.30;98.30
1083;DHT22;530;51.448;7.238;2022-07-03T07:11:22;23.30;98.40
1083;DHT22;530;51.448;7.238;2022-07-03T07:13:48;23.40;98.40
1083;DHT22;530;51.448;7.238;2022-07-03T07:16:13;23.40;98.10
1083;DHT22;530;51.448;7.238;2022-07-03T07:18:43;23.40;98.00
1083;DHT22;530;51.448;7.238;2022-07-03T07:21:10;23.50;98.40
1083;DHT22;530;51.448;7.238;2022-07-03T07:23:36;23.60;98.00
1083;DHT22;530;51.448;7.238;2022-07-03T07:26:02;23.70;97.90
1083;DHT22;530;51.448;7.238;2022-07-03T07:28:28;23.80;97.40
1083;DHT22;530;51.448;7.238;2022-07-03T07:30:54;23.90;97.50
1083;DHT22;530;51.448;7.238;2022-07-03T07:33:22;24.00;97.80
1083;DHT22;530;51.448;7.238;2022-07-03T07:35:48;24.00;97.80
1083;DHT22;530;51.448;7.238;2022-07-03T07:38:14;24.00;97.00
1083;DHT22;530;51.448;7.238;2022-07-03T07:40:39;24.00;97.00
1083;DHT22;530;51.448;7.238;2022-07-03T07:43:05;23.80;97.00
1083;DHT22;530;51.448;7.238;2022-07-03T07:45:31;23.80;97.00
1083;DHT22;530;51.448;7.238;2022-07-03T07:47:57;23.80;97.00
1083;DHT22;530;51.448;7.238;2022-07-03T07:50:23;23.90;97.10
1083;DHT22;530;51.448;7.238;2022-07-03T07:52:48;23.90;97.40
1083;DHT22;530;51.448;7.238;2022-07-03T07:55:14;23.90;97.40
1083;DHT22;530;51.448;7.238;2022-07-03T07:57:41;23.90;97.40
1083;DHT22;530;51.448;7.238;2022-07-03T08:00:11;24.00;97.90
1083;DHT22;530;51.448;7.238;2022-07-03T08:02:38;24.00;97.30
1083;DHT22;530;51.448;7.238;2022-07-03T08:05:22;24.00;97.20
1083;DHT22;530;51.448;7.238;2022-07-03T08:08:06;24.00;97.50
1083;DHT22;530;51.448;7.238;2022-07-03T08:10:47;23.90;97.60
1083;DHT22;530;51.448;7.238;2022-07-03T08:13:14;23.70;97.40
1083;DHT22;530;51.448;7.238;2022-07-03T08:15:41;23.60;97.80
1083;DHT22;530;51.448;7.238;2022-07-03T08:18:07;23.60;98.10
1083;DHT22;530;51.448;7.238;2022-07-03T08:20:35;23.50;97.90
1083;DHT22;530;51.448;7.238;2022-07-03T08:23:01;23.50;98.30
1083;DHT22;530;51.448;7.238;2022-07-03T08:25:27;23.50;98.50
1083;DHT22;530;51.448;7.238;2022-07-03T08:27:53;23.60;98.70
1083;DHT22;530;51.448;7.238;2022-07-03T08:30:19;23.70;98.50
1083;DHT22;530;51.448;7.238;2022-07-03T08:32:50;23.80;98.20
1083;DHT22;530;51.448;7.238;2022-07-03T08:35:16;23.80;97.60
1083;DHT22;530;51.448;7.238;2022-07-03T08:37:43;23.90;97.80
1083;DHT22;530;51.448;7.238;2022-07-03T08:40:13;24.00;98.60
1083;DHT22;530;51.448;7.238;2022-07-03T08:42:48;24.00;98.00
1083;DHT22;530;51.448;7.238;2022-07-03T08:45:15;24.10;97.70
1083;DHT22;530;51.448;7.238;2022-07-03T08:47:43;24.10;97.90
1083;DHT22;530;51.448;7.238;2022-07-03T08:50:11;24.20;97.80
1083;DHT22;530;51.448;7.238;2022-07-03T08:52:38;24.40;97.90
1083;DHT22;530;51.448;7.238;2022-07-03T08:55:07;24.40;97.70
1083;DHT22;530;51.448;7.238;2022-07-03T08:57:33;24.50;97.60
1083;DHT22;530;51.448;7.238;2022-07-03T09:00:07;24.60;97.50
1083;DHT22;530;51.448;7.238;2022-07-03T09:02:34;24.70;97.70
1083;DHT22;530;51.448;7.238;2022-07-03T09:05:00;24.80;97.00
1083;DHT22;530;51.448;7.238;2022-07-03T09:07:30;24.90;97.20
1083;DHT22;530;51.448;7.238;2022-07-03T09:09:56;24.90;97.20
1083;DHT22;530;51.448;7.238;2022-07-03T09:12:23;25.00;96.60
1083;DHT22;530;51.448;7.238;2022-07-03T09:14:49;25.00;96.00
1083;DHT22;530;51.448;7.238;2022-07-03T09:17:15;25.10;96.80
1083;DHT22;530;51.448;7.238;2022-07-03T09:19:48;25.20;96.90
1083;DHT22;530;51.448;7.238;2022-07-03T09:22:25;25.30;96.60
1083;DHT22;530;51.448;7.238;2022-07-03T09:25:04;25.40;96.40
1083;DHT22;530;51.448;7.238;2022-07-03T09:27:31;25.50;96.00
1083;DHT22;530;51.448;7.238;2022-07-03T09:30:07;25.60;95.80
1083;DHT22;530;51.448;7.238;2022-07-03T09:35:22;25.50;95.00
1083;DHT22;530;51.448;7.238;2022-07-03T09:40:14;25.50;94.40
1083;DHT22;530;51.448;7.238;2022-07-03T09:43:06;25.60;95.00
1083;DHT22;530;51.448;7.238;2022-07-03T09:45:55;25.70;95.40
1083;DHT22;530;51.448;7.238;2022-07-03T09:48:33;25.80;94.10
1083;DHT22;530;51.448;7.238;2022-07-03T09:53:57;25.90;94.80
1083;DHT22;530;51.448;7.238;2022-07-03T09:56:34;26.00;95.20
1083;DHT22;530;51.448;7.238;2022-07-03T10:01:26;26.20;94.00
1083;DHT22;530;51.448;7.238;2022-07-03T10:03:52;26.10;92.50
1083;DHT22;530;51.448;7.238;2022-07-03T10:06:19;26.10;94.00
1083;DHT22;530;51.448;7.238;2022-07-03T10:08:46;26.10;93.30
1083;DHT22;530;51.448;7.238;2022-07-03T10:11:13;26.20;94.00
1083;DHT22;530;51.448;7.238;2022-07-03T10:13:39;26.20;93.80
1083;DHT22;530;51.448;7.238;2022-07-03T10:16:06;26.30;93.70
1083;DHT22;530;51.448;7.238;2022-07-03T10:18:35;26.30;92.50
1083;DHT22;530;51.448;7.238;2022-07-03T10:21:05;26.30;93.40
1083;DHT22;530;51.448;7.238;2022-07-03T10:23:31;26.40;93.20
1083;DHT22;530;51.448;7.238;2022-07-03T10:25:58;26.40;92.70
1083;DHT22;530;51.448;7.238;2022-07-03T10:28:24;26.30;92.00
1083;DHT22;530;51.448;7.238;2022-07-03T10:30:50;26.30;92.60
1083;DHT22;530;51.448;7.238;2022-07-03T10:33:17;26.40;92.60
1083;DHT22;530;51.448;7.238;2022-07-03T10:35:49;26.50;93.60
1083;DHT22;530;51.448;7.238;2022-07-03T10:38:38;26.60;92.00
1083;DHT22;530;51.448;7.238;2022-07-03T10:44:20;26.80;93.80
1083;DHT22;530;51.448;7.238;2022-07-03T10:47:05;26.90;92.00
1083;DHT22;530;51.448;7.238;2022-07-03T10:49:31;26.90;92.60
1083;DHT22;530;51.448;7.238;2022-07-03T10:52:01;26.90;91.50
1083;DHT22;530;51.448;7.238;2022-07-03T10:54:28;26.90;92.00
1083;DHT22;530;51.448;7.238;2022-07-03T11:07:26;26.80;92.20
1083;DHT22;530;51.448;7.238;2022-07-03T11:20:38;26.90;90.30
1083;DHT22;530;51.448;7.238;2022-07-03T11:26:00;26.60;91.50
1083;DHT22;530;51.448;7.238;2022-07-03T11:38:44;26.80;92.80
1083;DHT22;530;51.448;7.238;2022-07-03T11:41:15;26.80;91.60
1083;DHT22;530;51.448;7.238;2022-07-03T11:43:48;26.90;91.20
1083;DHT22;530;51.448;7.238;2022-07-03T11:46:25;26.90;91.20
1083;DHT22;530;51.448;7.238;2022-07-03T11:49:19;26.80;91.70
1083;DHT22;530;51.448;7.238;2022-07-03T11:51:59;26.90;91.90
1083;DHT22;530;51.448;7.238;2022-07-03T11:54:29;26.80;91.10
1083;DHT22;530;51.448;7.238;2022-07-03T11:56:55;26.70;91.10
1083;DHT22;530;51.448;7.238;2022-07-03T11:59:21;26.60;90.50
1083;DHT22;530;51.448;7.238;2022-07-03T12:01:46;26.40;90.50
1083;DHT22;530;51.448;7.238;2022-07-03T12:04:20;26.40;90.80
1083;DHT22;530;51.448;7.238;2022-07-03T12:06:56;26.40;90.30
1083;DHT22;530;51.448;7.238;2022-07-03T12:09:27;26.50;91.20
1083;DHT22;530;51.448;7.238;2022-07-03T12:17:15;26.90;92.40
1083;DHT22;530;51.448;7.238;2022-07-03T12:19:59;27.10;92.80
1083;DHT22;530;51.448;7.238;2022-07-03T12:22:36;27.10;89.60
1083;DHT22;530;51.448;7.238;2022-07-03T12:25:09;27.00;90.00
1083;DHT22;530;51.448;7.238;2022-07-03T12:27:40;27.10;90.40
1083;DHT22;530;51.448;7.238;2022-07-03T12:30:08;27.10;89.10
1083;DHT22;530;51.448;7.238;2022-07-03T12:32:35;27.30;88.90
1083;DHT22;530;51.448;7.238;2022-07-03T12:35:01;27.30;88.50
1083;DHT22;530;51.448;7.238;2022-07-03T12:37:39;27.30;88.10
1083;DHT22;530;51.448;7.238;2022-07-03T12:40:11;27.30;90.40
1083;DHT22;530;51.448;7.238;2022-07-03T12:42:52;27.30;89.30
1083;DHT22;530;51.448;7.238;2022-07-03T12:45:23;27.40;90.00
1083;DHT22;530;51.448;7.238;2022-07-03T12:47:59;27.40;85.80
1083;DHT22;530;51.448;7.238;2022-07-03T12:50:25;27.30;81.90
1083;DHT22;530;51.448;7.238;2022-07-03T12:52:53;27.30;82.70
1083;DHT22;530;51.448;7.238;2022-07-03T12:55:27;27.20;84.90
1083;DHT22;530;51.448;7.238;2022-07-03T12:58:16;27.20;85.50
1083;DHT22;530;51.448;7.238;2022-07-03T13:01:33;27.10;85.40
1083;DHT22;530;51.448;7.238;2022-07-03T13:04:02;27.30;85.40
1083;DHT22;530;51.448;7.238;2022-07-03T13:06:28;27.40;84.80
1083;DHT22;530;51.448;7.238;2022-07-03T13:09:04;27.50;84.10
1083;DHT22;530;51.448;7.238;2022-07-03T13:11:38;27.60;85.80
1083;DHT22;530;51.448;7.238;2022-07-03T13:14:16;27.50;87.00
1083;DHT22;530;51.448;7.238;2022-07-03T13:16:47;27.50;86.20
1083;DHT22;530;51.448;7.238;2022-07-03T13:19:18;27.60;86.50
1083;DHT22;530;51.448;7.238;2022-07-03T13:21:44;27.60;83.10
1083;DHT22;530;51.448;7.238;2022-07-03T13:24:12;27.60;82.60
1083;DHT22;530;51.448;7.238;2022-07-03T13:26:39;27.60;83.20
1083;DHT22;530;51.448;7.238;2022-07-03T13:29:05;27.50;81.90
1083;DHT22;530;51.448;7.238;2022-07-03T13:31:31;27.50;82.60
1083;DHT22;530;51.448;7.238;2022-07-03T13:33:57;27.50;82.70
1083;DHT22;530;51.448;7.238;2022-07-03T13:36:28;27.50;83.20
1083;DHT22;530;51.448;7.238;2022-07-03T13:38:55;27.50;81.30
1083;DHT22;530;51.448;7.238;2022-07-03T13:41:21;27.40;84.00
1083;DHT22;530;51.448;7.238;2022-07-03T13:43:49;27.40;84.90
1083;DHT22;530;51.448;7.238;2022-07-03T13:46:15;27.40;83.90
1083;DHT22;530;51.448;7.238;2022-07-03T13:48:41;27.50;85.20
1083;DHT22;530;51.448;7.238;2022-07-03T13:51:07;27.40;84.50
1083;DHT22;530;51.448;7.238;2022-07-03T13:53:33;27.50;84.10
1083;DHT22;530;51.448;7.238;2022-07-03T13:55:59;27.60;84.90
1083;DHT22;530;51.448;7.238;2022-07-03T13:58:26;27.60;84.20
1083;DHT22;530;51.448;7.238;2022-07-03T14:00:52;27.40;81.10
1083;DHT22;530;51.448;7.238;2022-07-03T14:03:18;27.10;80.90
1083;DHT22;530;51.448;7.238;2022-07-03T14:05:44;26.80;82.30
1083;DHT22;530;51.448;7.238;2022-07-03T14:08:10;26.80;82.60
1083;DHT22;530;51.448;7.238;2022-07-03T14:10:37;26.70;84.20
1083;DHT22;530;51.448;7.238;2022-07-03T14:13:04;26.80;85.30
1083;DHT22;530;51.448;7.238;2022-07-03T14:15:30;26.90;83.30
1083;DHT22;530;51.448;7.238;2022-07-03T14:17:56;27.00;83.30
1083;DHT22;530;51.448;7.238;2022-07-03T14:20:26;26.80;82.20
1083;DHT22;530;51.448;7.238;2022-07-03T14:22:51;26.60;81.80
1083;DHT22;530;51.448;7.238;2022-07-03T14:25:17;26.50;82.00
1083;DHT22;530;51.448;7.238;2022-07-03T14:27:43;26.50;85.70
1083;DHT22;530;51.448;7.238;2022-07-03T14:30:27;26.70;85.80
1083;DHT22;530;51.448;7.238;2022-07-03T14:33:12;26.80;84.70
1083;DHT22;530;51.448;7.238;2022-07-03T14:35:37;26.90;85.20
1083;DHT22;530;51.448;7.238;2022-07-03T14:38:03;26.90;83.70
1083;DHT22;530;51.448;7.238;2022-07-03T14:40:29;26.80;83.50
1083;DHT22;530;51.448;7.238;2022-07-03T14:42:56;26.80;84.10
1083;DHT22;530;51.448;7.238;2022-07-03T14:45:25;26.50;83.90
1083;DHT22;530;51.448;7.238;2022-07-03T14:47:51;26.50;84.20
1083;DHT22;530;51.448;7.238;2022-07-03T14:50:17;26.40;83.40
1083;DHT22;530;51.448;7.238;2022-07-03T14:52:43;26.40;84.40
1083;DHT22;530;51.448;7.238;2022-07-03T14:55:09;26.20;84.70
1083;DHT22;530;51.448;7.238;2022-07-03T14:57:42;26.10;84.20
1083;DHT22;530;51.448;7.238;2022-07-03T15:00:13;26.00;84.90
1083;DHT22;530;51.448;7.238;2022-07-03T15:05:24;25.90;86.20
1083;DHT22;530;51.448;7.238;2022-07-03T15:08:24;25.70;84.80
1083;DHT22;530;51.448;7.238;2022-07-03T15:10:55;25.60;89.20
1083;DHT22;530;51.448;7.238;2022-07-03T15:13:20;25.60;88.10
1083;DHT22;530;51.448;7.238;2022-07-03T15:15:48;25.60;88.70
1083;DHT22;530;51.448;7.238;2022-07-03T15:18:18;25.70;89.50
1083;DHT22;530;51.448;7.238;2022-07-03T15:20:44;25.80;90.10
1083;DHT22;530;51.448;7.238;2022-07-03T15:23:10;26.00;90.00
1083;DHT22;530;51.448;7.238;2022-07-03T15:25:37;26.00;88.50
1083;DHT22;530;51.448;7.238;2022-07-03T15:28:04;25.90;88.80
1083;DHT22;530;51.448;7.238;2022-07-03T15:30:30;25.80;89.90
1083;DHT22;530;51.448;7.238;2022-07-03T15:32:57;25.60;90.00
1083;DHT22;530;51.448;7.238;2022-07-03T15:35:24;25.60;90.10
1083;DHT22;530;51.448;7.238;2022-07-03T15:48:59;25.60;90.90
1083;DHT22;530;51.448;7.238;2022-07-03T16:00:14;25.50;89.60
1083;DHT22;530;51.448;7.238;2022-07-03T16:03:02;25.70;89.40
1083;DHT22;530;51.448;7.238;2022-07-03T16:05:35;25.80;87.20
1083;DHT22;530;51.448;7.238;2022-07-03T16:08:07;25.90;88.90
1083;DHT22;530;51.448;7.238;2022-07-03T16:10:34;25.90;87.80
1083;DHT22;530;51.448;7.238;2022-07-03T16:13:00;26.10;86.70
1083;DHT22;530;51.448;7.238;2022-07-03T16:15:31;26.10;86.30
1083;DHT22;530;51.448;7.238;2022-07-03T16:17:57;26.00;86.50
1083;DHT22;530;51.448;7.238;2022-07-03T16:20:27;25.90;87.10
1083;DHT22;530;51.448;7.238;2022-07-03T16:23:01;25.90;87.60
1083;DHT22;530;51.448;7.238;2022-07-03T16:25:33;25.90;87.70
1083;DHT22;530;51.448;7.238;2022-07-03T16:28:11;26.00;87.60
1083;DHT22;530;51.448;7.238;2022-07-03T16:30:48;26.20;89.30
1083;DHT22;530;51.448;7.238;2022-07-03T16:33:18;26.20;89.60
1083;DHT22;530;51.448;7.238;2022-07-03T16:35:50;26.30;88.20
1083;DHT22;530;51.448;7.238;2022-07-03T16:38:25;26.30;85.50
1083;DHT22;530;51.448;7.238;2022-07-03T16:40:51;26.20;86.20
1083;DHT22;530;51.448;7.238;2022-07-03T16:43:20;26.10;86.60
1083;DHT22;530;51.448;7.238;2022-07-03T16:45:49;25.90;86.80
1083;DHT22;530;51.448;7.238;2022-07-03T16:48:23;26.00;87.40
1083;DHT22;530;51.448;7.238;2022-07-03T16:50:56;26.10;86.00
1083;DHT22;530;51.448;7.238;2022-07-03T16:53:23;25.90;86.30
1083;DHT22;530;51.448;7.238;2022-07-03T16:55:50;25.90;87.00
1083;DHT22;530;51.448;7.238;2022-07-03T16:58:16;25.80;87.50
1083;DHT22;530;51.448;7.238;2022-07-03T17:00:43;25.70;86.70
1083;DHT22;530;51.448;7.238;2022-07-03T17:03:10;25.60;86.40
1083;DHT22;530;51.448;7.238;2022-07-03T17:05:37;25.50;87.50
1083;DHT22;530;51.448;7.238;2022-07-03T17:08:04;25.50;87.80
1083;DHT22;530;51.448;7.238;2022-07-03T17:10:30;25.50;87.30
1083;DHT22;530;51.448;7.238;2022-07-03T17:12:58;25.50;86.80
1083;DHT22;530;51.448;7.238;2022-07-03T17:15:27;25.50;87.30
1083;DHT22;530;51.448;7.238;2022-07-03T17:17:56;25.40;87.20
1083;DHT22;530;51.448;7.238;2022-07-03T17:20:25;25.50;86.50
1083;DHT22;530;51.448;7.238;2022-07-03T17:22:56;25.50;86.40
1083;DHT22;530;51.448;7.238;2022-07-03T17:25:25;25.50;86.70
1083;DHT22;530;51.448;7.238;2022-07-03T17:27:57;25.50;86.60
1083;DHT22;530;51.448;7.238;2022-07-03T17:30:38;25.30;86.60
1083;DHT22;530;51.448;7.238;2022-07-03T17:33:07;25.30;87.20
1083;DHT22;530;51.448;7.238;2022-07-03T17:35:40;25.10;86.70
1083;DHT22;530;51.448;7.238;2022-07-03T17:38:14;25.10;87.20
1083;DHT22;530;51.448;7.238;2022-07-03T17:40:45;25.10;87.60
1083;DHT22;530;51.448;7.238;2022-07-03T17:43:12;25.20;86.10
1083;DHT22;530;51.448;7.238;2022-07-03T17:45:39;25.20;85.20
1083;DHT22;530;51.448;7.238;2022-07-03T17:48:07;25.10;86.00
1083;DHT22;530;51.448;7.238;2022-07-03T17:50:33;25.20;87.00
1083;DHT22;530;51.448;7.238;2022-07-03T17:53:00;25.20;87.10
1083;DHT22;530;51.448;7.238;2022-07-03T17:55:27;25.00;85.20
1083;DHT22;530;51.448;7.238;2022-07-03T17:57:54;24.90;84.50
1083;DHT22;530;51.448;7.238;2022-07-03T18:00:24;24.80;86.00
1083;DHT22;530;51.448;7.238;2022-07-03T18:02:52;24.70;86.40
1083;DHT22;530;51.448;7.238;2022-07-03T18:05:20;24.50;86.00
1083;DHT22;530;51.448;7.238;2022-07-03T18:07:53;24.50;87.30
1083;DHT22;530;51.448;7.238;2022-07-03T18:10:22;24.40;88.20
1083;DHT22;530;51.448;7.238;2022-07-03T18:15:41;24.30;90.30
1083;DHT22;530;51.448;7.238;2022-07-03T18:18:22;24.20;90.80
1083;DHT22;530;51.448;7.238;2022-07-03T18:20:53;24.00;91.20
1083;DHT22;530;51.448;7.238;2022-07-03T18:23:20;23.90;91.80
1083;DHT22;530;51.448;7.238;2022-07-03T18:25:49;23.90;92.20
1083;DHT22;530;51.448;7.238;2022-07-03T18:28:16;23.80;92.40
1083;DHT22;530;51.448;7.238;2022-07-03T18:30:43;23.70;93.10